^^
Grace C. Lehan Memorial Weather Station Historical Data
Daily Summary for May 23, 2022 Units:  Both    English   Metric
Daily Weekly Monthly Yearly
  High: Low: Average:
Temperature: 73.9 °F /  23.3 °C 60.5 °F /  15.8 °C 66.8 °F /  19.3 °C
Dew Point: 64.7 °F /  18.2 °C 47.6 °F /  8.7 °C 53.3 °F /  11.8 °C
Humidity: 92.6% 40% 64%
Wind Speed: 5mph /  8km/h - 1.7mph /  2.7km/h
Wind Gust: 21mph /  33.8km/h - -
Wind- - SW
Pressure: 30.17 in /  1021.6 hPa 29.98 in /  1015.1 hPa -
Precipitation: 0.00 in /  0 mm    
 
 
Tabular Data for May 23, 2022
Time Temperature Dew Point Pressure Wind Wind Speed Wind Gust Humidity Rainfall Rate (Hourly) solar
00:09 67.1 °F /  19.5 °C 64.7 °F /  18.2 °C 29.98in /  1015.1hPa NW 0.4mph /  0.6km/h 4mph /  6.4km/h 92% 0.00in /  0mm 0 W/m2
00:14 66.8 °F /  19.3 °C 64.4 °F /  18 °C 29.98in /  1015.1hPa NW 0.6mph /  1km/h 6mph /  9.7km/h 92% 0.00in /  0mm 0 W/m2
00:19 66.6 °F /  19.2 °C 64.2 °F /  17.9 °C 29.98in /  1015.1hPa Calm   6mph /  9.7km/h 92% 0.00in /  0mm 0 W/m2
00:24 66.5 °F /  19.2 °C 64.3 °F /  17.9 °C 29.98in /  1015.1hPa Calm   6mph /  9.7km/h 92.6% 0.00in /  0mm 0 W/m2
00:29 66.4 °F /  19.1 °C 64.1 °F /  17.8 °C 29.98in /  1015.1hPa Calm   6mph /  9.7km/h 92.3% 0.00in /  0mm 0 W/m2
00:34 66.3 °F /  19.1 °C 63.9 °F /  17.7 °C 29.98in /  1015.1hPa NW 0.3mph /  0.5km/h 6mph /  9.7km/h 92% 0.00in /  0mm 0 W/m2
00:39 66.2 °F /  19 °C 63.8 °F /  17.7 °C 29.99in /  1015.5hPa NW 0.2mph /  0.3km/h 3mph /  4.8km/h 92% 0.00in /  0mm 0 W/m2
00:44 66.1 °F /  18.9 °C 63.9 °F /  17.7 °C 29.99in /  1015.5hPa NW 1.7mph /  2.7km/h 6mph /  9.7km/h 92.4% 0.00in /  0mm 0 W/m2
00:49 65.9 °F /  18.8 °C 63.5 °F /  17.5 °C 29.99in /  1015.5hPa WNW 3.4mph /  5.5km/h 12mph /  19.3km/h 92% 0.00in /  0mm 0 W/m2
00:54 65.6 °F /  18.7 °C 63.1 °F /  17.3 °C 29.99in /  1015.5hPa NW 3.2mph /  5.1km/h 17mph /  27.4km/h 91.7% 0.00in /  0mm 0 W/m2
00:59 65.3 °F /  18.5 °C 62.7 °F /  17.1 °C 29.99in /  1015.5hPa NNW 2.8mph /  4.5km/h 17mph /  27.4km/h 91% 0.00in /  0mm 0 W/m2
01:04 65.2 °F /  18.4 °C 62.3 °F /  16.8 °C 30.00in /  1015.8hPa NW 2.5mph /  4km/h 17mph /  27.4km/h 90.4% 0.00in /  0mm 0 W/m2
01:09 65 °F /  18.3 °C 62 °F /  16.7 °C 30.00in /  1015.8hPa NW 0.9mph /  1.4km/h 11mph /  17.7km/h 90% 0.00in /  0mm 0 W/m2
01:14 65 °F /  18.3 °C 62 °F /  16.7 °C 30.00in /  1015.8hPa Calm   11mph /  17.7km/h 90% 0.00in /  0mm 0 W/m2
01:19 64.9 °F /  18.3 °C 62.2 °F /  16.8 °C 30.00in /  1015.8hPa West 1.7mph /  2.7km/h 11mph /  17.7km/h 90.9% 0.00in /  0mm 0 W/m2
01:24 64.8 °F /  18.2 °C 61.9 °F /  16.6 °C 30.00in /  1015.8hPa West 1.8mph /  2.9km/h 11mph /  17.7km/h 90.1% 0.00in /  0mm 0 W/m2
01:29 64.8 °F /  18.2 °C 62 °F /  16.7 °C 30.00in /  1015.8hPa WNW 2.3mph /  3.7km/h 11mph /  17.7km/h 90.7% 0.00in /  0mm 0 W/m2
01:34 64.6 °F /  18.1 °C 61.7 °F /  16.5 °C 30.00in /  1015.8hPa WNW 0.6mph /  1km/h 11mph /  17.7km/h 90% 0.00in /  0mm 0 W/m2
01:39 64.5 °F /  18.1 °C 61.6 °F /  16.4 °C 30.00in /  1015.8hPa NNW 1.1mph /  1.8km/h 6mph /  9.7km/h 90% 0.00in /  0mm 0 W/m2
01:44 64.4 °F /  18 °C 61.4 °F /  16.3 °C 30.00in /  1015.8hPa NNW 3.1mph /  5km/h 12mph /  19.3km/h 90% 0.00in /  0mm 0 W/m2
01:49 64.4 °F /  18 °C 61.4 °F /  16.3 °C 30.01in /  1016.1hPa WNW 2mph /  3.2km/h 12mph /  19.3km/h 90% 0.00in /  0mm 0 W/m2
01:54 64.3 °F /  17.9 °C 61.3 °F /  16.3 °C 30.01in /  1016.1hPa WNW 2.1mph /  3.4km/h 12mph /  19.3km/h 90% 0.00in /  0mm 0 W/m2
01:59 64.2 °F /  17.9 °C 61.2 °F /  16.2 °C 30.01in /  1016.1hPa WNW 1.5mph /  2.4km/h 12mph /  19.3km/h 90% 0.00in /  0mm 0 W/m2
02:04 64.1 °F /  17.8 °C 60.9 °F /  16.1 °C 30.01in /  1016.1hPa NW 1.8mph /  2.9km/h 12mph /  19.3km/h 89.4% 0.00in /  0mm 0 W/m2
02:09 64 °F /  17.8 °C 60.7 °F /  15.9 °C 30.01in /  1016.1hPa WNW 1.9mph /  3.1km/h 8mph /  12.9km/h 89% 0.00in /  0mm 0 W/m2
02:14 63.9 °F /  17.7 °C 60.6 °F /  15.9 °C 30.01in /  1016.1hPa WNW 1.3mph /  2.1km/h 8mph /  12.9km/h 89% 0.00in /  0mm 0 W/m2
02:19 63.8 °F /  17.7 °C 60.5 °F /  15.8 °C 30.01in /  1016.1hPa WNW 0.8mph /  1.3km/h 12mph /  19.3km/h 89% 0.00in /  0mm 0 W/m2
02:24 63.8 °F /  17.7 °C 60.5 °F /  15.8 °C 30.01in /  1016.1hPa WNW 2.7mph /  4.3km/h 12mph /  19.3km/h 89% 0.00in /  0mm 0 W/m2
02:29 63.6 °F /  17.6 °C 60 °F /  15.6 °C 30.01in /  1016.1hPa NW 2.1mph /  3.4km/h 14mph /  22.5km/h 88% 0.00in /  0mm 0 W/m2
02:34 63.5 °F /  17.5 °C 60 °F /  15.6 °C 30.01in /  1016.1hPa WNW 0.7mph /  1.1km/h 14mph /  22.5km/h 88.3% 0.00in /  0mm 0 W/m2
02:36 63.5 °F /  17.5 °C 59.7 °F /  15.4 °C 30.01in /  1016.1hPa Calm   5mph /  8km/h 87.4% 0.00in /  0mm 0 W/m2
03:00 63.3 °F /  17.4 °C 59.1 °F /  15.1 °C 30.02in /  1016.5hPa NW 1mph /  1.6km/h 13mph /  20.9km/h 86% 0.00in /  0mm 0 W/m2
03:30 62.7 °F /  17.1 °C 57.5 °F /  14.2 °C 30.03in /  1016.8hPa NW 2mph /  3.2km/h 17mph /  27.4km/h 83% 0.00in /  0mm 0 W/m2
04:04 62.2 °F /  16.8 °C 57 °F /  13.9 °C 30.03in /  1016.8hPa WNW 0.8mph /  1.3km/h 3mph /  4.8km/h 83% 0.00in /  0mm 0 W/m2
04:09 62.2 °F /  16.8 °C 57 °F /  13.9 °C 30.03in /  1016.8hPa NW 1mph /  1.6km/h 6mph /  9.7km/h 83.1% 0.00in /  0mm 0 W/m2
04:14 62.1 °F /  16.7 °C 57.1 °F /  13.9 °C 30.03in /  1016.8hPa NW 1.5mph /  2.4km/h 10mph /  16.1km/h 83.7% 0.00in /  0mm 0 W/m2
04:19 62.1 °F /  16.7 °C 57 °F /  13.9 °C 30.04in /  1017.2hPa NW 2.5mph /  4km/h 10mph /  16.1km/h 83.3% 0.00in /  0mm 0 W/m2
04:24 62 °F /  16.7 °C 57.1 °F /  13.9 °C 30.03in /  1016.8hPa NW 1.1mph /  1.8km/h 10mph /  16.1km/h 83.9% 0.00in /  0mm 0 W/m2
04:29 62 °F /  16.7 °C 56.8 °F /  13.8 °C 30.03in /  1016.8hPa NW 2.6mph /  4.2km/h 11mph /  17.7km/h 83.1% 0.00in /  0mm 0 W/m2
04:34 61.9 °F /  16.6 °C 56.7 °F /  13.7 °C 30.03in /  1016.8hPa WNW 1.8mph /  2.9km/h 11mph /  17.7km/h 83% 0.00in /  0mm 0 W/m2
04:39 61.8 °F /  16.6 °C 56.6 °F /  13.7 °C 30.04in /  1017.2hPa NW 0.9mph /  1.4km/h 9mph /  14.5km/h 83% 0.00in /  0mm 0 W/m2
04:44 61.7 °F /  16.5 °C 56.5 °F /  13.6 °C 30.04in /  1017.2hPa NW 2.7mph /  4.3km/h 9mph /  14.5km/h 83% 0.00in /  0mm 0 W/m2
04:49 61.6 °F /  16.4 °C 56.4 °F /  13.6 °C 30.04in /  1017.2hPa NW 0.9mph /  1.4km/h 9mph /  14.5km/h 83% 0.00in /  0mm 0 W/m2
04:54 61.6 °F /  16.4 °C 56.4 °F /  13.6 °C 30.05in /  1017.5hPa WNW 1.5mph /  2.4km/h 9mph /  14.5km/h 83% 0.00in /  0mm 0 W/m2
04:59 61.6 °F /  16.4 °C 56.4 °F /  13.6 °C 30.05in /  1017.5hPa NW 1mph /  1.6km/h 9mph /  14.5km/h 83% 0.00in /  0mm 0 W/m2
05:04 61.6 °F /  16.4 °C 56.4 °F /  13.6 °C 30.05in /  1017.5hPa NW 1.7mph /  2.7km/h 9mph /  14.5km/h 83% 0.00in /  0mm 0 W/m2
05:09 61.6 °F /  16.4 °C 56.2 °F /  13.4 °C 30.05in /  1017.5hPa WNW 2mph /  3.2km/h 10mph /  16.1km/h 82.3% 0.00in /  0mm 0 W/m2
05:14 61.6 °F /  16.4 °C 56.1 °F /  13.4 °C 30.05in /  1017.5hPa NW 1.4mph /  2.3km/h 12mph /  19.3km/h 82% 0.00in /  0mm 0 W/m2
05:19 61.7 °F /  16.5 °C 56 °F /  13.3 °C 30.05in /  1017.5hPa NW 0.4mph /  0.6km/h 12mph /  19.3km/h 81.6% 0.00in /  0mm 0 W/m2
05:24 61.7 °F /  16.5 °C 55.9 °F /  13.3 °C 30.06in /  1017.8hPa NW 0.7mph /  1.1km/h 12mph /  19.3km/h 81.4% 0.00in /  0mm 0 W/m2
05:29 61.8 °F /  16.6 °C 55.9 °F /  13.3 °C 30.06in /  1017.8hPa NW 0.4mph /  0.6km/h 12mph /  19.3km/h 81% 0.00in /  0mm 0 W/m2
05:34 61.8 °F /  16.6 °C 55.6 °F /  13.1 °C 30.07in /  1018.2hPa NW 1mph /  1.6km/h 12mph /  19.3km/h 80.1% 0.00in /  0mm 9 W/m2
05:39 61.8 °F /  16.6 °C 55.5 °F /  13.1 °C 30.07in /  1018.2hPa NW 1.2mph /  1.9km/h 11mph /  17.7km/h 79.8% 0.00in /  0mm 14 W/m2
05:44 61.8 °F /  16.6 °C 55.2 °F /  12.9 °C 30.07in /  1018.2hPa NNW 1.2mph /  1.9km/h 11mph /  17.7km/h 79% 0.00in /  0mm 21 W/m2
05:49 61.7 °F /  16.5 °C 54.8 °F /  12.7 °C 30.07in /  1018.2hPa WNW 1.8mph /  2.9km/h 11mph /  17.7km/h 78.1% 0.00in /  0mm 23 W/m2
05:54 61.7 °F /  16.5 °C 54.4 °F /  12.4 °C 30.07in /  1018.2hPa NNW 0.7mph /  1.1km/h 11mph /  17.7km/h 77% 0.00in /  0mm 28 W/m2
05:59 61.6 °F /  16.4 °C 54.4 °F /  12.4 °C 30.08in /  1018.5hPa NNW 1.1mph /  1.8km/h 11mph /  17.7km/h 77.2% 0.00in /  0mm 30 W/m2
06:04 61.6 °F /  16.4 °C 53.7 °F /  12.1 °C 30.08in /  1018.5hPa NW 2.6mph /  4.2km/h 13mph /  20.9km/h 75.3% 0.00in /  0mm 30 W/m2
06:09 61.5 °F /  16.4 °C 53.3 °F /  11.8 °C 30.08in /  1018.5hPa WNW 1.9mph /  3.1km/h 13mph /  20.9km/h 74.4% 0.00in /  0mm 30 W/m2
06:14 61.4 °F /  16.3 °C 52.5 °F /  11.4 °C 30.08in /  1018.5hPa NW 3.3mph /  5.3km/h 15mph /  24.1km/h 72.3% 0.00in /  0mm 28 W/m2
06:19 61.4 °F /  16.3 °C 51.1 °F /  10.6 °C 30.09in /  1018.8hPa NW 2.7mph /  4.3km/h 15mph /  24.1km/h 69.1% 0.00in /  0mm 30 W/m2
06:24 61.3 °F /  16.3 °C 50.9 °F /  10.5 °C 30.09in /  1018.8hPa NW 1.1mph /  1.8km/h 15mph /  24.1km/h 68.7% 0.00in /  0mm 40 W/m2
06:29 61.3 °F /  16.3 °C 50.8 °F /  10.4 °C 30.10in /  1019.2hPa NW 1.1mph /  1.8km/h 15mph /  24.1km/h 68.4% 0.00in /  0mm 46 W/m2
06:34 61.2 °F /  16.2 °C 50.4 °F /  10.2 °C 30.10in /  1019.2hPa NW 2.2mph /  3.5km/h 15mph /  24.1km/h 67.5% 0.00in /  0mm 58 W/m2
06:39 61.1 °F /  16.2 °C 50.4 °F /  10.2 °C 30.10in /  1019.2hPa NNW 0.8mph /  1.3km/h 12mph /  19.3km/h 67.8% 0.00in /  0mm 72 W/m2
06:44 61.1 °F /  16.2 °C 50.2 °F /  10.1 °C 30.10in /  1019.2hPa NW 3.3mph /  5.3km/h 12mph /  19.3km/h 67.4% 0.00in /  0mm 76 W/m2
06:49 61 °F /  16.1 °C 49.5 °F /  9.7 °C 30.11in /  1019.5hPa NW 3.9mph /  6.3km/h 12mph /  19.3km/h 65.7% 0.00in /  0mm 156 W/m2
06:54 61 °F /  16.1 °C 49.1 °F /  9.5 °C 30.11in /  1019.5hPa NW 4.3mph /  6.9km/h 17mph /  27.4km/h 64.8% 0.00in /  0mm 91 W/m2
06:59 60.9 °F /  16.1 °C 48.7 °F /  9.3 °C 30.11in /  1019.5hPa NW 3.6mph /  5.8km/h 17mph /  27.4km/h 64.1% 0.00in /  0mm 105 W/m2
07:04 60.7 °F /  15.9 °C 48.9 °F /  9.4 °C 30.11in /  1019.5hPa NW 5mph /  8km/h 17mph /  27.4km/h 65% 0.00in /  0mm 107 W/m2
07:09 60.5 °F /  15.8 °C 48.9 °F /  9.4 °C 30.12in /  1019.9hPa NW 1.4mph /  2.3km/h 16mph /  25.7km/h 65.4% 0.00in /  0mm 116 W/m2
07:14 60.5 °F /  15.8 °C 49.3 °F /  9.6 °C 30.12in /  1019.9hPa NW 2.2mph /  3.5km/h 16mph /  25.7km/h 66.5% 0.00in /  0mm 153 W/m2
07:19 60.5 °F /  15.8 °C 49.4 °F /  9.7 °C 30.12in /  1019.9hPa NW 1.7mph /  2.7km/h 16mph /  25.7km/h 66.7% 0.00in /  0mm 127 W/m2
07:24 60.5 °F /  15.8 °C 49.5 °F /  9.7 °C 30.12in /  1019.9hPa NW 2.5mph /  4km/h 16mph /  25.7km/h 67% 0.00in /  0mm 128 W/m2
07:29 60.5 °F /  15.8 °C 49.5 °F /  9.7 °C 30.13in /  1020.2hPa NW 0.9mph /  1.4km/h 16mph /  25.7km/h 67% 0.00in /  0mm 156 W/m2
07:34 60.6 °F /  15.9 °C 50 °F /  10 °C 30.13in /  1020.2hPa NNW 0.8mph /  1.3km/h 16mph /  25.7km/h 68.1% 0.00in /  0mm 422 W/m2
07:39 61 °F /  16.1 °C 50.2 °F /  10.1 °C 30.13in /  1020.2hPa NNW 0.7mph /  1.1km/h 9mph /  14.5km/h 67.5% 0.00in /  0mm 438 W/m2
07:44 61.6 °F /  16.4 °C 50.2 °F /  10.1 °C 30.13in /  1020.2hPa NNW 2.3mph /  3.7km/h 10mph /  16.1km/h 66.2% 0.00in /  0mm 237 W/m2
07:49 61.8 °F /  16.6 °C 50.3 °F /  10.2 °C 30.13in /  1020.2hPa NW 1.5mph /  2.4km/h 10mph /  16.1km/h 66% 0.00in /  0mm 367 W/m2
07:54 62 °F /  16.7 °C 50.3 °F /  10.2 °C 30.13in /  1020.2hPa NNW 1.3mph /  2.1km/h 11mph /  17.7km/h 65.5% 0.00in /  0mm 367 W/m2
07:59 62 °F /  16.7 °C 50.5 °F /  10.3 °C 30.13in /  1020.2hPa Calm   11mph /  17.7km/h 65.8% 0.00in /  0mm 503 W/m2
08:04 62.9 °F /  17.2 °C 51 °F /  10.6 °C 30.13in /  1020.2hPa East 2mph /  3.2km/h 2mph /  3.2km/h 65% 0.00in /  0mm 490 W/m2
08:09 63.1 °F /  17.3 °C 51.3 °F /  10.7 °C 30.13in /  1020.2hPa NNW 1.1mph /  1.8km/h 10mph /  16.1km/h 65.3% 0.00in /  0mm 490 W/m2
08:14 63.2 °F /  17.3 °C 51 °F /  10.6 °C 30.13in /  1020.2hPa SW 1.2mph /  1.9km/h 16mph /  25.7km/h 64.4% 0.00in /  0mm 515 W/m2
08:19 63.1 °F /  17.3 °C 51.3 °F /  10.7 °C 30.14in /  1020.5hPa NNW 1.8mph /  2.9km/h 16mph /  25.7km/h 65.3% 0.00in /  0mm 520 W/m2
08:24 63.5 °F /  17.5 °C 51.8 °F /  11 °C 30.14in /  1020.5hPa NNW 2.3mph /  3.7km/h 16mph /  25.7km/h 65.7% 0.00in /  0mm 541 W/m2
08:29 64.1 °F /  17.8 °C 52.2 °F /  11.2 °C 30.14in /  1020.5hPa NW 1.2mph /  1.9km/h 16mph /  25.7km/h 65.3% 0.00in /  0mm 548 W/m2
08:34 64.4 °F /  18 °C 52.2 °F /  11.2 °C 30.14in /  1020.5hPa NW 1.3mph /  2.1km/h 16mph /  25.7km/h 64.4% 0.00in /  0mm 580 W/m2
08:39 64.7 °F /  18.2 °C 52.7 °F /  11.5 °C 30.15in /  1020.9hPa NW 2.9mph /  4.7km/h 12mph /  19.3km/h 65% 0.00in /  0mm 603 W/m2
08:44 65 °F /  18.3 °C 52.8 °F /  11.6 °C 30.15in /  1020.9hPa NNW 1.4mph /  2.3km/h 12mph /  19.3km/h 64.6% 0.00in /  0mm 612 W/m2
08:49 65.3 °F /  18.5 °C 53.1 °F /  11.7 °C 30.15in /  1020.9hPa North 2.1mph /  3.4km/h 18mph /  29km/h 64.7% 0.00in /  0mm 599 W/m2
08:54 65.4 °F /  18.6 °C 53 °F /  11.7 °C 30.15in /  1020.9hPa NNE 1.9mph /  3.1km/h 18mph /  29km/h 64.1% 0.00in /  0mm 594 W/m2
08:59 65.4 °F /  18.6 °C 52.4 °F /  11.3 °C 30.15in /  1020.9hPa NNW 1.8mph /  2.9km/h 18mph /  29km/h 63% 0.00in /  0mm 671 W/m2
09:04 65.5 °F /  18.6 °C 52.6 °F /  11.4 °C 30.16in /  1021.2hPa NNW 2.1mph /  3.4km/h 18mph /  29km/h 63.1% 0.00in /  0mm 698 W/m2
09:09 65.8 °F /  18.8 °C 53.2 °F /  11.8 °C 30.16in /  1021.2hPa NNW 1.1mph /  1.8km/h 14mph /  22.5km/h 63.9% 0.00in /  0mm 679 W/m2
09:14 66.1 °F /  18.9 °C 52.7 °F /  11.5 °C 30.16in /  1021.2hPa NE 0.7mph /  1.1km/h 14mph /  22.5km/h 61.9% 0.00in /  0mm 668 W/m2
09:19 66 °F /  18.9 °C 51.7 °F /  10.9 °C 30.16in /  1021.2hPa NNE 1.2mph /  1.9km/h 14mph /  22.5km/h 60% 0.00in /  0mm 638 W/m2
09:24 65.7 °F /  18.7 °C 51.8 °F /  11 °C 30.16in /  1021.2hPa ENE 1.1mph /  1.8km/h 14mph /  22.5km/h 60.8% 0.00in /  0mm 712 W/m2
09:29 65.6 °F /  18.7 °C 51.6 °F /  10.9 °C 30.16in /  1021.2hPa ENE 2mph /  3.2km/h 14mph /  22.5km/h 60.4% 0.00in /  0mm 738 W/m2
09:34 65.6 °F /  18.7 °C 52.3 °F /  11.3 °C 30.16in /  1021.2hPa ENE 1.6mph /  2.6km/h 14mph /  22.5km/h 62% 0.00in /  0mm 761 W/m2
09:39 65.7 °F /  18.7 °C 52.1 °F /  11.2 °C 30.16in /  1021.2hPa NNE 1.9mph /  3.1km/h 11mph /  17.7km/h 61.4% 0.00in /  0mm 758 W/m2
09:44 66 °F /  18.9 °C 52.6 °F /  11.4 °C 30.16in /  1021.2hPa NW 1.6mph /  2.6km/h 14mph /  22.5km/h 62.1% 0.00in /  0mm 749 W/m2
09:49 66.2 °F /  19 °C 52.5 °F /  11.4 °C 30.16in /  1021.2hPa NNW 1.7mph /  2.7km/h 14mph /  22.5km/h 61.2% 0.00in /  0mm 805 W/m2
09:54 66.7 °F /  19.3 °C 52.8 °F /  11.6 °C 30.16in /  1021.2hPa NW 1.6mph /  2.6km/h 14mph /  22.5km/h 60.8% 0.00in /  0mm 805 W/m2
09:59 67.3 °F /  19.6 °C 52.4 °F /  11.3 °C 30.16in /  1021.2hPa NW 3.4mph /  5.5km/h 14mph /  22.5km/h 58.8% 0.00in /  0mm 837 W/m2
10:04 67.8 °F /  19.9 °C 52.7 °F /  11.5 °C 30.16in /  1021.2hPa NW 1.9mph /  3.1km/h 14mph /  22.5km/h 58.4% 0.00in /  0mm 837 W/m2
10:09 68.4 °F /  20.2 °C 52.9 °F /  11.6 °C 30.16in /  1021.2hPa NNW 2.4mph /  3.9km/h 12mph /  19.3km/h 57.7% 0.00in /  0mm 860 W/m2
10:14 68.5 °F /  20.3 °C 52.2 °F /  11.2 °C 30.16in /  1021.2hPa ENE 1.5mph /  2.4km/h 12mph /  19.3km/h 56.1% 0.00in /  0mm 861 W/m2
10:19 68.2 °F /  20.1 °C 52.7 °F /  11.5 °C 30.16in /  1021.2hPa WNW 1mph /  1.6km/h 12mph /  19.3km/h 57.5% 0.00in /  0mm 861 W/m2
10:24 68.7 °F /  20.4 °C 53.8 °F /  12.1 °C 30.16in /  1021.2hPa NNW 0.7mph /  1.1km/h 12mph /  19.3km/h 59% 0.00in /  0mm 837 W/m2
10:29 68.9 °F /  20.5 °C 52.9 °F /  11.6 °C 30.16in /  1021.2hPa NNW 0.7mph /  1.1km/h 12mph /  19.3km/h 56.8% 0.00in /  0mm 842 W/m2
10:34 68.6 °F /  20.3 °C 51.8 °F /  11 °C 30.16in /  1021.2hPa East 2.6mph /  4.2km/h 12mph /  19.3km/h 54.9% 0.00in /  0mm 895 W/m2
10:39 68.3 °F /  20.2 °C 51.4 °F /  10.8 °C 30.16in /  1021.2hPa ENE 1.9mph /  3.1km/h 7mph /  11.3km/h 54.8% 0.00in /  0mm 881 W/m2
10:44 67.9 °F /  19.9 °C 50.7 °F /  10.4 °C 30.16in /  1021.2hPa ENE 1.1mph /  1.8km/h 7mph /  11.3km/h 54.1% 0.00in /  0mm 919 W/m2
10:49 68 °F /  20 °C 51.2 °F /  10.7 °C 30.16in /  1021.2hPa North 2.8mph /  4.5km/h 13mph /  20.9km/h 54.8% 0.00in /  0mm 925 W/m2
10:54 68.7 °F /  20.4 °C 51.2 °F /  10.7 °C 30.16in /  1021.2hPa ENE 1.2mph /  1.9km/h 13mph /  20.9km/h 53.6% 0.00in /  0mm 928 W/m2
10:59 69 °F /  20.6 °C 51 °F /  10.6 °C 30.16in /  1021.2hPa ENE 2.3mph /  3.7km/h 13mph /  20.9km/h 52.6% 0.00in /  0mm 932 W/m2
11:04 69.1 °F /  20.6 °C 51.4 °F /  10.8 °C 30.17in /  1021.6hPa NNW 0.8mph /  1.3km/h 13mph /  20.9km/h 53.1% 0.00in /  0mm 933 W/m2
11:09 69.6 °F /  20.9 °C 51.8 °F /  11 °C 30.16in /  1021.2hPa NNW 2.7mph /  4.3km/h 19mph /  30.6km/h 53.2% 0.00in /  0mm 946 W/m2
11:14 70.1 °F /  21.2 °C 51.2 °F /  10.7 °C 30.16in /  1021.2hPa NW 2mph /  3.2km/h 19mph /  30.6km/h 51% 0.00in /  0mm 947 W/m2
11:19 70.3 °F /  21.3 °C 50.4 °F /  10.2 °C 30.16in /  1021.2hPa NNW 2.8mph /  4.5km/h 19mph /  30.6km/h 49.4% 0.00in /  0mm 944 W/m2
11:24 70.3 °F /  21.3 °C 51 °F /  10.6 °C 30.17in /  1021.6hPa NNW 1.8mph /  2.9km/h 19mph /  30.6km/h 50.3% 0.00in /  0mm 956 W/m2
11:29 70.4 °F /  21.3 °C 49.9 °F /  9.9 °C 30.16in /  1021.2hPa NE 2.4mph /  3.9km/h 19mph /  30.6km/h 48.3% 0.00in /  0mm 954 W/m2
11:34 70 °F /  21.1 °C 49.6 °F /  9.8 °C 30.16in /  1021.2hPa NNW 3.7mph /  6km/h 21mph /  33.8km/h 48.5% 0.00in /  0mm 951 W/m2
11:39 69.9 °F /  21.1 °C 49.7 °F /  9.8 °C 30.16in /  1021.2hPa NE 1.4mph /  2.3km/h 21mph /  33.8km/h 48.7% 0.00in /  0mm 965 W/m2
11:44 70 °F /  21.1 °C 50.3 °F /  10.2 °C 30.16in /  1021.2hPa NNW 2.3mph /  3.7km/h 21mph /  33.8km/h 49.5% 0.00in /  0mm 953 W/m2
11:49 70.2 °F /  21.2 °C 50.3 °F /  10.2 °C 30.15in /  1020.9hPa NNE 1.2mph /  1.9km/h 21mph /  33.8km/h 49.2% 0.00in /  0mm 942 W/m2
11:54 70.2 °F /  21.2 °C 49.5 °F /  9.7 °C 30.16in /  1021.2hPa NE 1.8mph /  2.9km/h 21mph /  33.8km/h 47.8% 0.00in /  0mm 976 W/m2
11:59 70.1 °F /  21.2 °C 50.1 °F /  10.1 °C 30.15in /  1020.9hPa NE 1.6mph /  2.6km/h 21mph /  33.8km/h 49% 0.00in /  0mm 967 W/m2
12:00 70.2 °F /  21.2 °C 50.7 °F /  10.4 °C 30.15in /  1020.9hPa Calm   21mph /  33.8km/h 50% 0.00in /  0mm 923 W/m2
12:09 70.6 °F /  21.4 °C 50.9 °F /  10.5 °C 30.15in /  1020.9hPa ENE 0.8mph /  1.3km/h 6mph /  9.7km/h 49.6% 0.00in /  0mm 919 W/m2
12:14 70.7 °F /  21.5 °C 50.4 °F /  10.2 °C 30.15in /  1020.9hPa NNW 2.4mph /  3.9km/h 12mph /  19.3km/h 48.6% 0.00in /  0mm 944 W/m2
12:19 71 °F /  21.7 °C 50.4 °F /  10.2 °C 30.15in /  1020.9hPa NW 1.3mph /  2.1km/h 12mph /  19.3km/h 48.1% 0.00in /  0mm 967 W/m2
12:24 71.2 °F /  21.8 °C 51.4 °F /  10.8 °C 30.15in /  1020.9hPa NW 2mph /  3.2km/h 12mph /  19.3km/h 49.5% 0.00in /  0mm 965 W/m2
12:29 71.4 °F /  21.9 °C 50.8 °F /  10.4 °C 30.15in /  1020.9hPa NW 2.5mph /  4km/h 14mph /  22.5km/h 48.2% 0.00in /  0mm 991 W/m2
12:34 71.3 °F /  21.8 °C 50.4 °F /  10.2 °C 30.15in /  1020.9hPa NNW 2.4mph /  3.9km/h 14mph /  22.5km/h 47.7% 0.00in /  0mm 1011 W/m2
12:39 71.3 °F /  21.8 °C 49.9 °F /  9.9 °C 30.15in /  1020.9hPa ENE 3.7mph /  6km/h 12mph /  19.3km/h 46.7% 0.00in /  0mm 1011 W/m2
12:44 71.1 °F /  21.7 °C 49 °F /  9.4 °C 30.15in /  1020.9hPa NE 3mph /  4.8km/h 12mph /  19.3km/h 45.5% 0.00in /  0mm 991 W/m2
12:49 71.1 °F /  21.7 °C 49.5 °F /  9.7 °C 30.15in /  1020.9hPa NE 2.5mph /  4km/h 12mph /  19.3km/h 46.4% 0.00in /  0mm 967 W/m2
12:54 71.2 °F /  21.8 °C 49.7 °F /  9.8 °C 30.15in /  1020.9hPa NNE 2.3mph /  3.7km/h 12mph /  19.3km/h 46.7% 0.00in /  0mm 998 W/m2
12:59 71.1 °F /  21.7 °C 48.6 °F /  9.2 °C 30.15in /  1020.9hPa ENE 2.8mph /  4.5km/h 12mph /  19.3km/h 44.8% 0.00in /  0mm 986 W/m2
13:04 70.9 °F /  21.6 °C 49.5 °F /  9.7 °C 30.15in /  1020.9hPa ENE 1.9mph /  3.1km/h 12mph /  19.3km/h 46.6% 0.00in /  0mm 981 W/m2
13:09 71 °F /  21.7 °C 49.7 °F /  9.8 °C 30.14in /  1020.5hPa ENE 1.1mph /  1.8km/h 10mph /  16.1km/h 47% 0.00in /  0mm 1004 W/m2
13:14 71.1 °F /  21.7 °C 49.6 °F /  9.8 °C 30.14in /  1020.5hPa East 1.6mph /  2.6km/h 10mph /  16.1km/h 46.6% 0.00in /  0mm 988 W/m2
13:19 71.3 °F /  21.8 °C 50.3 °F /  10.2 °C 30.14in /  1020.5hPa ENE 1.7mph /  2.7km/h 10mph /  16.1km/h 47.4% 0.00in /  0mm 974 W/m2
13:24 71.5 °F /  21.9 °C 49.9 °F /  9.9 °C 30.14in /  1020.5hPa NNW 1.2mph /  1.9km/h 10mph /  16.1km/h 46.3% 0.00in /  0mm 942 W/m2
13:29 71.8 °F /  22.1 °C 49.8 °F /  9.9 °C 30.14in /  1020.5hPa NNE 3.9mph /  6.3km/h 10mph /  16.1km/h 45.9% 0.00in /  0mm 965 W/m2
13:34 71.9 °F /  22.2 °C 49.4 °F /  9.7 °C 30.14in /  1020.5hPa NNE 1.3mph /  2.1km/h 10mph /  16.1km/h 45% 0.00in /  0mm 958 W/m2
13:39 71.9 °F /  22.2 °C 49.8 °F /  9.9 °C 30.14in /  1020.5hPa NNE 0.9mph /  1.4km/h 10mph /  16.1km/h 45.8% 0.00in /  0mm 993 W/m2
13:44 72 °F /  22.2 °C 50.8 °F /  10.4 °C 30.14in /  1020.5hPa ENE 2.1mph /  3.4km/h 10mph /  16.1km/h 47.3% 0.00in /  0mm 993 W/m2
13:49 72.1 °F /  22.3 °C 50.3 °F /  10.2 °C 30.14in /  1020.5hPa NNW 2.2mph /  3.5km/h 10mph /  16.1km/h 46.3% 0.00in /  0mm 956 W/m2
13:54 72.3 °F /  22.4 °C 50.3 °F /  10.2 °C 30.13in /  1020.2hPa NNW 0.8mph /  1.3km/h 10mph /  16.1km/h 45.8% 0.00in /  0mm 935 W/m2
13:59 72.5 °F /  22.5 °C 50.9 °F /  10.5 °C 30.13in /  1020.2hPa ENE 1.6mph /  2.6km/h 10mph /  16.1km/h 46.6% 0.00in /  0mm 925 W/m2
14:04 72.8 °F /  22.7 °C 49.9 °F /  9.9 °C 30.13in /  1020.2hPa ENE 1.3mph /  2.1km/h 10mph /  16.1km/h 44.5% 0.00in /  0mm 923 W/m2
14:09 72.7 °F /  22.6 °C 49.3 °F /  9.6 °C 30.13in /  1020.2hPa ENE 1.6mph /  2.6km/h 9mph /  14.5km/h 43.6% 0.00in /  0mm 919 W/m2
14:14 72.7 °F /  22.6 °C 49.3 °F /  9.6 °C 30.13in /  1020.2hPa NE 1.5mph /  2.4km/h 9mph /  14.5km/h 43.5% 0.00in /  0mm 932 W/m2
14:19 72.8 °F /  22.7 °C 49.3 °F /  9.6 °C 30.13in /  1020.2hPa ENE 3mph /  4.8km/h 11mph /  17.7km/h 43.4% 0.00in /  0mm 937 W/m2
14:24 72.8 °F /  22.7 °C 50 °F /  10 °C 30.13in /  1020.2hPa ENE 2.1mph /  3.4km/h 15mph /  24.1km/h 44.6% 0.00in /  0mm 925 W/m2
14:29 72.7 °F /  22.6 °C 49.8 °F /  9.9 °C 30.13in /  1020.2hPa NE 2.3mph /  3.7km/h 15mph /  24.1km/h 44.3% 0.00in /  0mm 925 W/m2
14:34 72.8 °F /  22.7 °C 49.9 °F /  9.9 °C 30.13in /  1020.2hPa NNW 1.4mph /  2.3km/h 15mph /  24.1km/h 44.4% 0.00in /  0mm 875 W/m2
14:39 72.9 °F /  22.7 °C 50.5 °F /  10.3 °C 30.13in /  1020.2hPa NNE 1.6mph /  2.6km/h 6mph /  9.7km/h 45.3% 0.00in /  0mm 860 W/m2
14:43 73.2 °F /  22.9 °C 51 °F /  10.6 °C 30.13in /  1020.2hPa NW 1mph /  1.6km/h 6mph /  9.7km/h 45.6% 0.00in /  0mm 872 W/m2
14:49 73.6 °F /  23.1 °C 50.6 °F /  10.3 °C 30.12in /  1019.9hPa NNE 2mph /  3.2km/h 7mph /  11.3km/h 44.3% 0.00in /  0mm 879 W/m2
14:54 73.7 °F /  23.2 °C 49.2 °F /  9.6 °C 30.13in /  1020.2hPa ENE 1.7mph /  2.7km/h 7mph /  11.3km/h 42% 0.00in /  0mm 881 W/m2
14:59 73.7 °F /  23.2 °C 49.2 °F /  9.6 °C 30.13in /  1020.2hPa NE 1.9mph /  3.1km/h 10mph /  16.1km/h 42% 0.00in /  0mm 881 W/m2
15:04 73.6 °F /  23.1 °C 49.5 °F /  9.7 °C 30.13in /  1020.2hPa ENE 1.6mph /  2.6km/h 10mph /  16.1km/h 42.6% 0.00in /  0mm 840 W/m2
15:09 73.2 °F /  22.9 °C 49.1 °F /  9.5 °C 30.13in /  1020.2hPa East 1.2mph /  1.9km/h 5mph /  8km/h 42.5% 0.00in /  0mm 863 W/m2
15:14 73 °F /  22.8 °C 50.1 °F /  10.1 °C 30.12in /  1019.9hPa North 1.4mph /  2.3km/h 6mph /  9.7km/h 44.4% 0.00in /  0mm 846 W/m2
15:19 73.2 °F /  22.9 °C 50 °F /  10 °C 30.12in /  1019.9hPa NE 1.2mph /  1.9km/h 6mph /  9.7km/h 44% 0.00in /  0mm 749 W/m2
15:24 73.4 °F /  23 °C 50 °F /  10 °C 30.12in /  1019.9hPa NNE 1mph /  1.6km/h 6mph /  9.7km/h 43.7% 0.00in /  0mm 747 W/m2
15:29 73.5 °F /  23.1 °C 49.8 °F /  9.9 °C 30.12in /  1019.9hPa NNW 1mph /  1.6km/h 6mph /  9.7km/h 43.3% 0.00in /  0mm 666 W/m2
15:34 73.5 °F /  23.1 °C 48.7 °F /  9.3 °C 30.12in /  1019.9hPa NE 0.7mph /  1.1km/h 6mph /  9.7km/h 41.6% 0.00in /  0mm 726 W/m2
15:39 73.6 °F /  23.1 °C 49 °F /  9.4 °C 30.12in /  1019.9hPa ENE 2.3mph /  3.7km/h 7mph /  11.3km/h 41.8% 0.00in /  0mm 726 W/m2
15:44 73.7 °F /  23.2 °C 48.7 °F /  9.3 °C 30.12in /  1019.9hPa NE 2.2mph /  3.5km/h 11mph /  17.7km/h 41.3% 0.00in /  0mm 668 W/m2
15:49 73.7 °F /  23.2 °C 49 °F /  9.4 °C 30.11in /  1019.5hPa NNE 1.4mph /  2.3km/h 11mph /  17.7km/h 41.8% 0.00in /  0mm 721 W/m2
15:54 73.7 °F /  23.2 °C 49.4 °F /  9.7 °C 30.12in /  1019.9hPa ENE 1.8mph /  2.9km/h 11mph /  17.7km/h 42.3% 0.00in /  0mm 759 W/m2
15:59 73.9 °F /  23.3 °C 48.7 °F /  9.3 °C 30.12in /  1019.9hPa ENE 1.5mph /  2.4km/h 11mph /  17.7km/h 41.1% 0.00in /  0mm 759 W/m2
16:00 73.8 °F /  23.2 °C 48 °F /  8.9 °C 30.11in /  1019.5hPa ENE 2mph /  3.2km/h 11mph /  17.7km/h 40% 0.00in /  0mm 573 W/m2
16:09 73.6 °F /  23.1 °C 49.1 °F /  9.5 °C 30.11in /  1019.5hPa ENE 0.8mph /  1.3km/h 4mph /  6.4km/h 42% 0.00in /  0mm 459 W/m2
16:14 73.5 °F /  23.1 °C 47.8 °F /  8.8 °C 30.11in /  1019.5hPa East 1.3mph /  2.1km/h 5mph /  8km/h 40.2% 0.00in /  0mm 142 W/m2
16:19 73.3 °F /  22.9 °C 48 °F /  8.9 °C 30.11in /  1019.5hPa ENE 1.2mph /  1.9km/h 6mph /  9.7km/h 40.7% 0.00in /  0mm 149 W/m2
16:24 73.2 °F /  22.9 °C 47.7 °F /  8.7 °C 30.11in /  1019.5hPa NE 1.7mph /  2.7km/h 7mph /  11.3km/h 40.5% 0.00in /  0mm 174 W/m2
16:28 73.1 °F /  22.8 °C 47.6 °F /  8.7 °C 30.11in /  1019.5hPa NNE 0.3mph /  0.5km/h 7mph /  11.3km/h 40.4% 0.00in /  0mm 192 W/m2
Hartford County Weather
Compliments of Weather Underground - 2 mb